sensor_id;sensor_type;location;lat;lon;timestamp;P1;durP1;ratioP1;P2;durP2;ratioP2
74707;SDS011;63360;50.104;8.074;2023-05-19T00:01:47;3.10;;;1.80;;
74707;SDS011;63360;50.104;8.074;2023-05-19T00:04:14;4.45;;;1.98;;
74707;SDS011;63360;50.104;8.074;2023-05-19T00:06:42;3.90;;;1.77;;
74707;SDS011;63360;50.104;8.074;2023-05-19T00:09:11;5.90;;;1.90;;
74707;SDS011;63360;50.104;8.074;2023-05-19T00:11:38;4.25;;;2.13;;
74707;SDS011;63360;50.104;8.074;2023-05-19T00:14:06;4.55;;;1.98;;
74707;SDS011;63360;50.104;8.074;2023-05-19T00:16:35;5.28;;;2.00;;
74707;SDS011;63360;50.104;8.074;2023-05-19T00:19:03;6.63;;;2.00;;
74707;SDS011;63360;50.104;8.074;2023-05-19T00:21:31;5.55;;;2.30;;
74707;SDS011;63360;50.104;8.074;2023-05-19T00:23:57;6.43;;;1.90;;
74707;SDS011;63360;50.104;8.074;2023-05-19T00:26:25;6.50;;;2.13;;
74707;SDS011;63360;50.104;8.074;2023-05-19T00:28:52;5.25;;;1.92;;
74707;SDS011;63360;50.104;8.074;2023-05-19T00:31:19;5.03;;;1.90;;
74707;SDS011;63360;50.104;8.074;2023-05-19T00:33:45;5.93;;;1.83;;
74707;SDS011;63360;50.104;8.074;2023-05-19T00:36:12;6.75;;;2.05;;
74707;SDS011;63360;50.104;8.074;2023-05-19T00:38:38;6.80;;;2.20;;
74707;SDS011;63360;50.104;8.074;2023-05-19T00:41:05;4.60;;;2.25;;
74707;SDS011;63360;50.104;8.074;2023-05-19T00:43:32;7.20;;;2.17;;
74707;SDS011;63360;50.104;8.074;2023-05-19T00:46:02;4.70;;;2.00;;
74707;SDS011;63360;50.104;8.074;2023-05-19T00:48:29;5.18;;;2.00;;
74707;SDS011;63360;50.104;8.074;2023-05-19T00:50:55;4.47;;;2.00;;
74707;SDS011;63360;50.104;8.074;2023-05-19T00:53:30;4.50;;;2.15;;
74707;SDS011;63360;50.104;8.074;2023-05-19T00:55:58;4.10;;;2.00;;
74707;SDS011;63360;50.104;8.074;2023-05-19T00:58:26;5.22;;;2.10;;
74707;SDS011;63360;50.104;8.074;2023-05-19T01:00:56;4.97;;;2.13;;
74707;SDS011;63360;50.104;8.074;2023-05-19T01:03:32;4.78;;;2.10;;
74707;SDS011;63360;50.104;8.074;2023-05-19T01:06:03;5.15;;;2.28;;
74707;SDS011;63360;50.104;8.074;2023-05-19T01:08:31;6.27;;;2.23;;
74707;SDS011;63360;50.104;8.074;2023-05-19T01:10:58;6.10;;;2.38;;
74707;SDS011;63360;50.104;8.074;2023-05-19T01:13:26;4.63;;;2.00;;
74707;SDS011;63360;50.104;8.074;2023-05-19T01:24:42;5.05;;;2.40;;
74707;SDS011;63360;50.104;8.074;2023-05-19T01:27:29;5.28;;;2.42;;
74707;SDS011;63360;50.104;8.074;2023-05-19T01:32:44;4.68;;;2.20;;
74707;SDS011;63360;50.104;8.074;2023-05-19T01:35:13;4.67;;;2.10;;
74707;SDS011;63360;50.104;8.074;2023-05-19T01:37:41;4.80;;;2.20;;
74707;SDS011;63360;50.104;8.074;2023-05-19T01:40:10;6.30;;;2.25;;
74707;SDS011;63360;50.104;8.074;2023-05-19T01:42:37;4.07;;;2.10;;
74707;SDS011;63360;50.104;8.074;2023-05-19T01:45:06;3.63;;;2.10;;
74707;SDS011;63360;50.104;8.074;2023-05-19T01:47:38;5.83;;;2.30;;
74707;SDS011;63360;50.104;8.074;2023-05-19T01:50:06;7.20;;;2.50;;
74707;SDS011;63360;50.104;8.074;2023-05-19T01:52:33;6.57;;;2.40;;
74707;SDS011;63360;50.104;8.074;2023-05-19T01:55:00;7.32;;;2.55;;
74707;SDS011;63360;50.104;8.074;2023-05-19T02:05:54;6.97;;;1.98;;
74707;SDS011;63360;50.104;8.074;2023-05-19T02:14:38;3.53;;;2.00;;
74707;SDS011;63360;50.104;8.074;2023-05-19T02:16:59;4.15;;;2.50;;
74707;SDS011;63360;50.104;8.074;2023-05-19T02:19:27;5.22;;;2.20;;
74707;SDS011;63360;50.104;8.074;2023-05-19T02:21:54;7.15;;;2.33;;
74707;SDS011;63360;50.104;8.074;2023-05-19T02:24:21;6.55;;;2.10;;
74707;SDS011;63360;50.104;8.074;2023-05-19T02:26:48;4.90;;;2.17;;
74707;SDS011;63360;50.104;8.074;2023-05-19T02:29:17;3.38;;;2.05;;
74707;SDS011;63360;50.104;8.074;2023-05-19T02:31:44;5.38;;;2.10;;
74707;SDS011;63360;50.104;8.074;2023-05-19T02:34:10;4.78;;;2.05;;
74707;SDS011;63360;50.104;8.074;2023-05-19T02:36:38;6.28;;;2.13;;
74707;SDS011;63360;50.104;8.074;2023-05-19T02:39:08;5.60;;;2.27;;
74707;SDS011;63360;50.104;8.074;2023-05-19T02:41:36;5.70;;;2.00;;
74707;SDS011;63360;50.104;8.074;2023-05-19T02:44:03;3.53;;;2.03;;
74707;SDS011;63360;50.104;8.074;2023-05-19T02:46:30;4.75;;;2.22;;
74707;SDS011;63360;50.104;8.074;2023-05-19T02:48:56;4.85;;;1.98;;
74707;SDS011;63360;50.104;8.074;2023-05-19T02:51:23;4.90;;;2.10;;
74707;SDS011;63360;50.104;8.074;2023-05-19T02:53:49;5.00;;;2.15;;
74707;SDS011;63360;50.104;8.074;2023-05-19T02:56:16;9.88;;;2.30;;
74707;SDS011;63360;50.104;8.074;2023-05-19T02:58:42;5.25;;;2.00;;
74707;SDS011;63360;50.104;8.074;2023-05-19T03:01:09;4.65;;;2.22;;
74707;SDS011;63360;50.104;8.074;2023-05-19T03:03:36;5.27;;;2.30;;
74707;SDS011;63360;50.104;8.074;2023-05-19T03:06:03;5.88;;;2.13;;
74707;SDS011;63360;50.104;8.074;2023-05-19T03:08:30;8.30;;;2.22;;
74707;SDS011;63360;50.104;8.074;2023-05-19T03:10:56;4.43;;;1.75;;
74707;SDS011;63360;50.104;8.074;2023-05-19T03:13:22;4.05;;;1.70;;
74707;SDS011;63360;50.104;8.074;2023-05-19T03:15:49;5.03;;;2.10;;
74707;SDS011;63360;50.104;8.074;2023-05-19T03:18:16;4.60;;;1.80;;
74707;SDS011;63360;50.104;8.074;2023-05-19T03:20:42;5.68;;;2.05;;
74707;SDS011;63360;50.104;8.074;2023-05-19T03:23:09;4.88;;;2.00;;
74707;SDS011;63360;50.104;8.074;2023-05-19T03:25:36;4.35;;;1.90;;
74707;SDS011;63360;50.104;8.074;2023-05-19T03:28:02;5.07;;;1.77;;
74707;SDS011;63360;50.104;8.074;2023-05-19T03:30:29;5.05;;;2.05;;
74707;SDS011;63360;50.104;8.074;2023-05-19T03:32:55;4.25;;;1.90;;
74707;SDS011;63360;50.104;8.074;2023-05-19T03:35:22;5.53;;;2.00;;
74707;SDS011;63360;50.104;8.074;2023-05-19T03:37:48;7.28;;;2.38;;
74707;SDS011;63360;50.104;8.074;2023-05-19T03:40:15;4.83;;;2.00;;
74707;SDS011;63360;50.104;8.074;2023-05-19T03:42:43;6.75;;;2.30;;
74707;SDS011;63360;50.104;8.074;2023-05-19T03:45:10;4.50;;;1.70;;
74707;SDS011;63360;50.104;8.074;2023-05-19T03:47:36;4.72;;;2.00;;
74707;SDS011;63360;50.104;8.074;2023-05-19T03:50:03;5.30;;;1.73;;
74707;SDS011;63360;50.104;8.074;2023-05-19T03:52:30;5.37;;;2.10;;
74707;SDS011;63360;50.104;8.074;2023-05-19T03:54:56;4.97;;;2.00;;
74707;SDS011;63360;50.104;8.074;2023-05-19T03:57:23;6.70;;;2.00;;
74707;SDS011;63360;50.104;8.074;2023-05-19T03:59:50;5.30;;;1.85;;
74707;SDS011;63360;50.104;8.074;2023-05-19T04:02:16;4.07;;;2.22;;
74707;SDS011;63360;50.104;8.074;2023-05-19T04:04:43;6.10;;;2.27;;
74707;SDS011;63360;50.104;8.074;2023-05-19T04:07:09;4.57;;;1.70;;
74707;SDS011;63360;50.104;8.074;2023-05-19T04:09:36;5.57;;;2.20;;
74707;SDS011;63360;50.104;8.074;2023-05-19T04:12:04;5.18;;;1.90;;
74707;SDS011;63360;50.104;8.074;2023-05-19T04:14:30;5.55;;;2.03;;
74707;SDS011;63360;50.104;8.074;2023-05-19T04:16:57;5.00;;;2.43;;
74707;SDS011;63360;50.104;8.074;2023-05-19T04:19:24;6.60;;;1.90;;
74707;SDS011;63360;50.104;8.074;2023-05-19T04:21:50;4.45;;;2.00;;
74707;SDS011;63360;50.104;8.074;2023-05-19T04:24:17;6.03;;;2.00;;
74707;SDS011;63360;50.104;8.074;2023-05-19T04:26:43;5.68;;;2.20;;
74707;SDS011;63360;50.104;8.074;2023-05-19T04:29:12;4.30;;;2.17;;
74707;SDS011;63360;50.104;8.074;2023-05-19T04:31:45;4.15;;;1.70;;
74707;SDS011;63360;50.104;8.074;2023-05-19T04:34:12;5.45;;;1.98;;
74707;SDS011;63360;50.104;8.074;2023-05-19T04:36:38;5.97;;;2.15;;
74707;SDS011;63360;50.104;8.074;2023-05-19T04:39:04;5.32;;;2.00;;
74707;SDS011;63360;50.104;8.074;2023-05-19T04:41:34;3.93;;;2.10;;
74707;SDS011;63360;50.104;8.074;2023-05-19T04:44:00;4.78;;;2.08;;
74707;SDS011;63360;50.104;8.074;2023-05-19T04:46:27;4.65;;;2.15;;
74707;SDS011;63360;50.104;8.074;2023-05-19T04:48:54;4.40;;;2.25;;
74707;SDS011;63360;50.104;8.074;2023-05-19T04:51:22;5.45;;;2.00;;
74707;SDS011;63360;50.104;8.074;2023-05-19T04:53:58;6.10;;;2.10;;
74707;SDS011;63360;50.104;8.074;2023-05-19T04:56:24;6.75;;;1.98;;
74707;SDS011;63360;50.104;8.074;2023-05-19T04:58:52;5.68;;;2.03;;
74707;SDS011;63360;50.104;8.074;2023-05-19T05:01:18;6.40;;;1.95;;
74707;SDS011;63360;50.104;8.074;2023-05-19T05:03:47;5.53;;;1.80;;
74707;SDS011;63360;50.104;8.074;2023-05-19T05:06:14;5.33;;;1.70;;
74707;SDS011;63360;50.104;8.074;2023-05-19T05:08:41;4.30;;;1.77;;
74707;SDS011;63360;50.104;8.074;2023-05-19T05:11:07;5.13;;;1.98;;
74707;SDS011;63360;50.104;8.074;2023-05-19T05:13:34;6.07;;;1.60;;
74707;SDS011;63360;50.104;8.074;2023-05-19T05:16:01;4.65;;;1.92;;
74707;SDS011;63360;50.104;8.074;2023-05-19T05:18:32;6.60;;;1.87;;
74707;SDS011;63360;50.104;8.074;2023-05-19T05:20:58;4.97;;;1.80;;
74707;SDS011;63360;50.104;8.074;2023-05-19T05:23:26;3.80;;;1.85;;
74707;SDS011;63360;50.104;8.074;2023-05-19T05:25:52;4.95;;;2.10;;
74707;SDS011;63360;50.104;8.074;2023-05-19T05:28:19;5.07;;;1.75;;
74707;SDS011;63360;50.104;8.074;2023-05-19T05:30:46;4.03;;;1.87;;
74707;SDS011;63360;50.104;8.074;2023-05-19T05:33:12;5.88;;;1.90;;
74707;SDS011;63360;50.104;8.074;2023-05-19T05:35:39;5.25;;;1.80;;
74707;SDS011;63360;50.104;8.074;2023-05-19T05:38:05;5.40;;;1.88;;
74707;SDS011;63360;50.104;8.074;2023-05-19T05:40:32;4.80;;;1.88;;
74707;SDS011;63360;50.104;8.074;2023-05-19T05:42:58;4.37;;;1.80;;
74707;SDS011;63360;50.104;8.074;2023-05-19T05:45:25;7.10;;;1.70;;
74707;SDS011;63360;50.104;8.074;2023-05-19T05:47:51;6.50;;;1.90;;
74707;SDS011;63360;50.104;8.074;2023-05-19T05:50:18;4.45;;;1.60;;
74707;SDS011;63360;50.104;8.074;2023-05-19T05:52:45;4.80;;;1.70;;
74707;SDS011;63360;50.104;8.074;2023-05-19T05:55:13;4.60;;;1.90;;
74707;SDS011;63360;50.104;8.074;2023-05-19T05:57:42;5.20;;;1.67;;
74707;SDS011;63360;50.104;8.074;2023-05-19T06:00:09;5.50;;;1.88;;
74707;SDS011;63360;50.104;8.074;2023-05-19T06:02:41;4.47;;;1.50;;
74707;SDS011;63360;50.104;8.074;2023-05-19T06:05:11;4.93;;;1.65;;
74707;SDS011;63360;50.104;8.074;2023-05-19T06:07:39;6.43;;;1.97;;
74707;SDS011;63360;50.104;8.074;2023-05-19T06:10:06;5.93;;;1.70;;
74707;SDS011;63360;50.104;8.074;2023-05-19T06:12:34;4.55;;;1.60;;
74707;SDS011;63360;50.104;8.074;2023-05-19T06:15:01;4.40;;;1.73;;
74707;SDS011;63360;50.104;8.074;2023-05-19T06:17:29;5.07;;;1.85;;
74707;SDS011;63360;50.104;8.074;2023-05-19T06:19:55;5.53;;;1.40;;
74707;SDS011;63360;50.104;8.074;2023-05-19T06:22:22;4.32;;;1.45;;
74707;SDS011;63360;50.104;8.074;2023-05-19T06:24:48;4.43;;;1.50;;
74707;SDS011;63360;50.104;8.074;2023-05-19T06:27:15;3.25;;;1.60;;
74707;SDS011;63360;50.104;8.074;2023-05-19T06:29:41;4.20;;;1.50;;
74707;SDS011;63360;50.104;8.074;2023-05-19T06:32:08;4.73;;;1.60;;
74707;SDS011;63360;50.104;8.074;2023-05-19T06:34:34;5.85;;;1.73;;
74707;SDS011;63360;50.104;8.074;2023-05-19T06:37:01;4.40;;;1.40;;
74707;SDS011;63360;50.104;8.074;2023-05-19T06:39:27;5.68;;;1.40;;
74707;SDS011;63360;50.104;8.074;2023-05-19T06:41:54;3.97;;;1.50;;
74707;SDS011;63360;50.104;8.074;2023-05-19T06:44:21;3.33;;;1.33;;
74707;SDS011;63360;50.104;8.074;2023-05-19T06:46:47;4.63;;;1.55;;
74707;SDS011;63360;50.104;8.074;2023-05-19T06:49:14;4.53;;;1.60;;
74707;SDS011;63360;50.104;8.074;2023-05-19T06:51:40;3.80;;;1.48;;
74707;SDS011;63360;50.104;8.074;2023-05-19T06:54:07;4.82;;;1.50;;
74707;SDS011;63360;50.104;8.074;2023-05-19T06:56:36;5.40;;;1.70;;
74707;SDS011;63360;50.104;8.074;2023-05-19T06:59:02;4.50;;;1.65;;
74707;SDS011;63360;50.104;8.074;2023-05-19T07:01:29;4.45;;;1.80;;
74707;SDS011;63360;50.104;8.074;2023-05-19T07:03:56;5.90;;;1.60;;
74707;SDS011;63360;50.104;8.074;2023-05-19T07:06:22;6.38;;;1.42;;
74707;SDS011;63360;50.104;8.074;2023-05-19T07:08:49;6.57;;;1.80;;
74707;SDS011;63360;50.104;8.074;2023-05-19T07:11:16;3.65;;;1.40;;
74707;SDS011;63360;50.104;8.074;2023-05-19T07:13:42;5.15;;;1.90;;
74707;SDS011;63360;50.104;8.074;2023-05-19T07:16:09;3.72;;;1.40;;
74707;SDS011;63360;50.104;8.074;2023-05-19T07:18:35;6.38;;;1.55;;
74707;SDS011;63360;50.104;8.074;2023-05-19T07:21:02;6.20;;;1.87;;
74707;SDS011;63360;50.104;8.074;2023-05-19T07:23:28;5.15;;;1.70;;
74707;SDS011;63360;50.104;8.074;2023-05-19T07:25:55;3.85;;;1.60;;
74707;SDS011;63360;50.104;8.074;2023-05-19T07:28:22;5.05;;;1.60;;
74707;SDS011;63360;50.104;8.074;2023-05-19T07:30:48;5.40;;;1.65;;
74707;SDS011;63360;50.104;8.074;2023-05-19T07:33:15;7.17;;;1.50;;
74707;SDS011;63360;50.104;8.074;2023-05-19T07:35:41;5.50;;;1.50;;
74707;SDS011;63360;50.104;8.074;2023-05-19T07:38:08;5.00;;;1.58;;
74707;SDS011;63360;50.104;8.074;2023-05-19T07:40:34;4.32;;;1.83;;
74707;SDS011;63360;50.104;8.074;2023-05-19T07:43:00;6.07;;;1.80;;
74707;SDS011;63360;50.104;8.074;2023-05-19T07:45:27;4.40;;;1.63;;
74707;SDS011;63360;50.104;8.074;2023-05-19T07:47:53;5.05;;;1.38;;
74707;SDS011;63360;50.104;8.074;2023-05-19T07:50:20;4.72;;;1.55;;
74707;SDS011;63360;50.104;8.074;2023-05-19T07:52:47;4.35;;;1.42;;
74707;SDS011;63360;50.104;8.074;2023-05-19T07:55:13;3.70;;;1.38;;
74707;SDS011;63360;50.104;8.074;2023-05-19T07:57:40;2.67;;;1.43;;
74707;SDS011;63360;50.104;8.074;2023-05-19T08:00:06;5.35;;;1.50;;
74707;SDS011;63360;50.104;8.074;2023-05-19T08:02:35;4.00;;;1.77;;
74707;SDS011;63360;50.104;8.074;2023-05-19T08:05:01;4.40;;;1.40;;
74707;SDS011;63360;50.104;8.074;2023-05-19T08:07:28;5.93;;;1.80;;
74707;SDS011;63360;50.104;8.074;2023-05-19T08:09:54;3.87;;;1.60;;
74707;SDS011;63360;50.104;8.074;2023-05-19T08:12:21;3.85;;;1.20;;
74707;SDS011;63360;50.104;8.074;2023-05-19T08:14:47;4.32;;;1.40;;
74707;SDS011;63360;50.104;8.074;2023-05-19T08:17:14;4.43;;;1.50;;
74707;SDS011;63360;50.104;8.074;2023-05-19T08:19:40;4.03;;;1.63;;
74707;SDS011;63360;50.104;8.074;2023-05-19T08:22:06;3.90;;;1.50;;
74707;SDS011;63360;50.104;8.074;2023-05-19T08:24:33;6.13;;;1.77;;
74707;SDS011;63360;50.104;8.074;2023-05-19T08:26:59;6.38;;;1.90;;
74707;SDS011;63360;50.104;8.074;2023-05-19T08:29:26;4.25;;;1.60;;
74707;SDS011;63360;50.104;8.074;2023-05-19T08:31:52;4.80;;;1.77;;
74707;SDS011;63360;50.104;8.074;2023-05-19T08:34:19;5.03;;;1.50;;
74707;SDS011;63360;50.104;8.074;2023-05-19T08:36:46;6.15;;;1.88;;
74707;SDS011;63360;50.104;8.074;2023-05-19T08:39:12;5.38;;;1.83;;
74707;SDS011;63360;50.104;8.074;2023-05-19T08:41:41;3.95;;;1.80;;
74707;SDS011;63360;50.104;8.074;2023-05-19T08:44:07;5.05;;;1.80;;
74707;SDS011;63360;50.104;8.074;2023-05-19T08:46:34;5.37;;;1.70;;
74707;SDS011;63360;50.104;8.074;2023-05-19T08:49:03;5.82;;;1.60;;
74707;SDS011;63360;50.104;8.074;2023-05-19T08:51:43;4.00;;;1.23;;
74707;SDS011;63360;50.104;8.074;2023-05-19T08:54:19;3.90;;;1.20;;
74707;SDS011;63360;50.104;8.074;2023-05-19T08:56:50;3.95;;;1.33;;
74707;SDS011;63360;50.104;8.074;2023-05-19T08:59:17;4.07;;;1.30;;
74707;SDS011;63360;50.104;8.074;2023-05-19T09:01:44;6.97;;;2.00;;
74707;SDS011;63360;50.104;8.074;2023-05-19T09:04:12;4.13;;;1.45;;
74707;SDS011;63360;50.104;8.074;2023-05-19T09:06:39;5.97;;;1.75;;
74707;SDS011;63360;50.104;8.074;2023-05-19T09:09:06;6.25;;;1.80;;
74707;SDS011;63360;50.104;8.074;2023-05-19T09:11:33;4.97;;;1.60;;
74707;SDS011;63360;50.104;8.074;2023-05-19T09:14:03;3.05;;;1.23;;
74707;SDS011;63360;50.104;8.074;2023-05-19T09:16:30;3.28;;;1.35;;
74707;SDS011;63360;50.104;8.074;2023-05-19T09:18:58;4.63;;;1.30;;
74707;SDS011;63360;50.104;8.074;2023-05-19T09:21:27;4.75;;;1.52;;
74707;SDS011;63360;50.104;8.074;2023-05-19T09:23:57;7.13;;;1.73;;
74707;SDS011;63360;50.104;8.074;2023-05-19T09:26:35;3.78;;;1.30;;
74707;SDS011;63360;50.104;8.074;2023-05-19T09:29:10;4.45;;;1.48;;
74707;SDS011;63360;50.104;8.074;2023-05-19T09:31:37;4.65;;;1.45;;
74707;SDS011;63360;50.104;8.074;2023-05-19T09:34:10;4.32;;;1.65;;
74707;SDS011;63360;50.104;8.074;2023-05-19T09:36:38;7.03;;;1.80;;
74707;SDS011;63360;50.104;8.074;2023-05-19T09:39:12;4.32;;;1.45;;
74707;SDS011;63360;50.104;8.074;2023-05-19T09:41:40;3.60;;;1.27;;
74707;SDS011;63360;50.104;8.074;2023-05-19T09:44:06;3.42;;;1.13;;
74707;SDS011;63360;50.104;8.074;2023-05-19T09:46:37;8.55;;;2.10;;
74707;SDS011;63360;50.104;8.074;2023-05-19T09:49:07;5.90;;;1.30;;
74707;SDS011;63360;50.104;8.074;2023-05-19T09:51:35;4.25;;;1.25;;
74707;SDS011;63360;50.104;8.074;2023-05-19T09:54:04;6.70;;;1.67;;
74707;SDS011;63360;50.104;8.074;2023-05-19T09:56:33;5.38;;;1.60;;
74707;SDS011;63360;50.104;8.074;2023-05-19T09:59:00;6.68;;;1.40;;
74707;SDS011;63360;50.104;8.074;2023-05-19T10:01:29;4.37;;;1.40;;
74707;SDS011;63360;50.104;8.074;2023-05-19T10:03:59;5.45;;;1.55;;
74707;SDS011;63360;50.104;8.074;2023-05-19T10:06:25;4.18;;;1.40;;
74707;SDS011;63360;50.104;8.074;2023-05-19T10:08:52;5.05;;;1.40;;
74707;SDS011;63360;50.104;8.074;2023-05-19T10:11:19;5.53;;;1.42;;
74707;SDS011;63360;50.104;8.074;2023-05-19T10:13:49;3.37;;;1.40;;
74707;SDS011;63360;50.104;8.074;2023-05-19T10:16:17;9.90;;;1.20;;
74707;SDS011;63360;50.104;8.074;2023-05-19T10:18:47;5.35;;;1.23;;
74707;SDS011;63360;50.104;8.074;2023-05-19T10:21:16;4.45;;;1.27;;
74707;SDS011;63360;50.104;8.074;2023-05-19T10:23:43;3.97;;;1.35;;
74707;SDS011;63360;50.104;8.074;2023-05-19T10:26:09;4.10;;;1.10;;
74707;SDS011;63360;50.104;8.074;2023-05-19T10:28:38;5.22;;;1.50;;
74707;SDS011;63360;50.104;8.074;2023-05-19T10:31:08;4.85;;;1.58;;
74707;SDS011;63360;50.104;8.074;2023-05-19T10:39:03;4.40;;;1.13;;
74707;SDS011;63360;50.104;8.074;2023-05-19T10:42:23;6.00;;;1.50;;
74707;SDS011;63360;50.104;8.074;2023-05-19T10:47:32;4.15;;;1.63;;
74707;SDS011;63360;50.104;8.074;2023-05-19T10:50:00;4.28;;;1.40;;
74707;SDS011;63360;50.104;8.074;2023-05-19T10:52:26;4.80;;;1.30;;
74707;SDS011;63360;50.104;8.074;2023-05-19T10:54:56;4.63;;;1.08;;
74707;SDS011;63360;50.104;8.074;2023-05-19T10:57:26;2.40;;;1.20;;
74707;SDS011;63360;50.104;8.074;2023-05-19T10:59:54;4.60;;;1.38;;
74707;SDS011;63360;50.104;8.074;2023-05-19T11:07:39;3.50;;;1.40;;
74707;SDS011;63360;50.104;8.074;2023-05-19T11:10:07;4.00;;;1.00;;
74707;SDS011;63360;50.104;8.074;2023-05-19T11:12:41;3.53;;;1.20;;
74707;SDS011;63360;50.104;8.074;2023-05-19T11:15:13;5.55;;;1.50;;
74707;SDS011;63360;50.104;8.074;2023-05-19T11:17:41;3.63;;;1.43;;
74707;SDS011;63360;50.104;8.074;2023-05-19T11:20:25;3.83;;;1.23;;
74707;SDS011;63360;50.104;8.074;2023-05-19T11:23:03;6.25;;;1.20;;
74707;SDS011;63360;50.104;8.074;2023-05-19T11:25:39;4.25;;;1.20;;
74707;SDS011;63360;50.104;8.074;2023-05-19T11:28:20;3.17;;;1.00;;
74707;SDS011;63360;50.104;8.074;2023-05-19T11:30:53;3.40;;;1.00;;
74707;SDS011;63360;50.104;8.074;2023-05-19T11:33:22;3.50;;;1.13;;
74707;SDS011;63360;50.104;8.074;2023-05-19T11:35:53;3.78;;;1.20;;
74707;SDS011;63360;50.104;8.074;2023-05-19T11:38:23;3.65;;;1.20;;
74707;SDS011;63360;50.104;8.074;2023-05-19T11:40:52;3.15;;;1.25;;
74707;SDS011;63360;50.104;8.074;2023-05-19T11:43:23;6.17;;;3.20;;
74707;SDS011;63360;50.104;8.074;2023-05-19T11:45:50;4.78;;;1.30;;
74707;SDS011;63360;50.104;8.074;2023-05-19T11:48:19;10.02;;;1.73;;
74707;SDS011;63360;50.104;8.074;2023-05-19T11:50:47;3.03;;;1.30;;
74707;SDS011;63360;50.104;8.074;2023-05-19T11:53:14;4.40;;;1.30;;
74707;SDS011;63360;50.104;8.074;2023-05-19T11:55:42;4.83;;;1.47;;
74707;SDS011;63360;50.104;8.074;2023-05-19T11:58:11;3.67;;;1.38;;
74707;SDS011;63360;50.104;8.074;2023-05-19T12:00:38;3.65;;;1.30;;
74707;SDS011;63360;50.104;8.074;2023-05-19T12:03:06;2.83;;;1.20;;
74707;SDS011;63360;50.104;8.074;2023-05-19T12:05:39;3.92;;;1.27;;
74707;SDS011;63360;50.104;8.074;2023-05-19T12:08:10;3.43;;;1.20;;
74707;SDS011;63360;50.104;8.074;2023-05-19T12:10:37;3.58;;;1.30;;
74707;SDS011;63360;50.104;8.074;2023-05-19T12:13:05;2.72;;;1.15;;
74707;SDS011;63360;50.104;8.074;2023-05-19T12:15:35;2.60;;;1.20;;
74707;SDS011;63360;50.104;8.074;2023-05-19T12:18:01;4.00;;;1.10;;
74707;SDS011;63360;50.104;8.074;2023-05-19T12:20:29;2.90;;;1.10;;
74707;SDS011;63360;50.104;8.074;2023-05-19T12:22:57;3.65;;;1.40;;
74707;SDS011;63360;50.104;8.074;2023-05-19T12:25:25;3.15;;;1.23;;
74707;SDS011;63360;50.104;8.074;2023-05-19T12:27:55;4.13;;;1.00;;
74707;SDS011;63360;50.104;8.074;2023-05-19T12:30:24;3.13;;;1.17;;
74707;SDS011;63360;50.104;8.074;2023-05-19T12:32:52;2.47;;;1.10;;
74707;SDS011;63360;50.104;8.074;2023-05-19T12:35:19;2.65;;;1.13;;
74707;SDS011;63360;50.104;8.074;2023-05-19T12:37:48;2.80;;;1.20;;
74707;SDS011;63360;50.104;8.074;2023-05-19T12:40:15;4.13;;;1.23;;
74707;SDS011;63360;50.104;8.074;2023-05-19T12:42:45;5.50;;;1.20;;
74707;SDS011;63360;50.104;8.074;2023-05-19T12:45:13;4.90;;;1.37;;
74707;SDS011;63360;50.104;8.074;2023-05-19T12:47:40;3.65;;;1.20;;
74707;SDS011;63360;50.104;8.074;2023-05-19T12:50:07;6.57;;;1.23;;
74707;SDS011;63360;50.104;8.074;2023-05-19T12:52:42;4.00;;;1.30;;
74707;SDS011;63360;50.104;8.074;2023-05-19T12:55:13;4.63;;;1.40;;
74707;SDS011;63360;50.104;8.074;2023-05-19T12:57:46;4.83;;;1.20;;
74707;SDS011;63360;50.104;8.074;2023-05-19T13:00:19;2.90;;;1.35;;
74707;SDS011;63360;50.104;8.074;2023-05-19T13:02:53;3.83;;;1.40;;
74707;SDS011;63360;50.104;8.074;2023-05-19T13:05:35;3.10;;;1.30;;
74707;SDS011;63360;50.104;8.074;2023-05-19T13:10:31;6.50;;;1.63;;
74707;SDS011;63360;50.104;8.074;2023-05-19T13:12:59;3.28;;;1.42;;
74707;SDS011;63360;50.104;8.074;2023-05-19T13:15:27;4.43;;;1.60;;
74707;SDS011;63360;50.104;8.074;2023-05-19T13:17:56;4.68;;;1.50;;
74707;SDS011;63360;50.104;8.074;2023-05-19T13:20:23;2.60;;;1.35;;
74707;SDS011;63360;50.104;8.074;2023-05-19T13:22:53;4.70;;;1.40;;
74707;SDS011;63360;50.104;8.074;2023-05-19T13:25:20;2.95;;;1.20;;
74707;SDS011;63360;50.104;8.074;2023-05-19T13:27:47;3.42;;;1.55;;
74707;SDS011;63360;50.104;8.074;2023-05-19T13:30:14;3.95;;;1.65;;
74707;SDS011;63360;50.104;8.074;2023-05-19T13:32:44;4.18;;;1.42;;
74707;SDS011;63360;50.104;8.074;2023-05-19T13:35:11;3.43;;;1.40;;
74707;SDS011;63360;50.104;8.074;2023-05-19T13:37:39;4.07;;;1.20;;
74707;SDS011;63360;50.104;8.074;2023-05-19T13:40:07;4.20;;;1.40;;
74707;SDS011;63360;50.104;8.074;2023-05-19T13:42:34;3.90;;;1.60;;
74707;SDS011;63360;50.104;8.074;2023-05-19T13:45:01;3.38;;;1.52;;
74707;SDS011;63360;50.104;8.074;2023-05-19T13:47:28;4.50;;;1.80;;
74707;SDS011;63360;50.104;8.074;2023-05-19T13:49:55;3.90;;;1.27;;
74707;SDS011;63360;50.104;8.074;2023-05-19T13:52:21;4.38;;;1.33;;
74707;SDS011;63360;50.104;8.074;2023-05-19T13:54:48;4.47;;;1.60;;
74707;SDS011;63360;50.104;8.074;2023-05-19T13:57:15;7.13;;;1.30;;
74707;SDS011;63360;50.104;8.074;2023-05-19T13:59:42;3.93;;;1.70;;
74707;SDS011;63360;50.104;8.074;2023-05-19T14:02:26;2.38;;;1.35;;
74707;SDS011;63360;50.104;8.074;2023-05-19T14:04:53;3.97;;;1.30;;
74707;SDS011;63360;50.104;8.074;2023-05-19T14:07:19;5.70;;;1.58;;
74707;SDS011;63360;50.104;8.074;2023-05-19T14:09:46;4.13;;;1.48;;
74707;SDS011;63360;50.104;8.074;2023-05-19T14:12:12;5.23;;;1.50;;
74707;SDS011;63360;50.104;8.074;2023-05-19T14:14:39;3.35;;;1.50;;
74707;SDS011;63360;50.104;8.074;2023-05-19T14:17:05;4.20;;;1.60;;
74707;SDS011;63360;50.104;8.074;2023-05-19T14:19:32;5.57;;;1.77;;
74707;SDS011;63360;50.104;8.074;2023-05-19T14:21:58;4.93;;;2.05;;
74707;SDS011;63360;50.104;8.074;2023-05-19T14:24:25;4.13;;;1.70;;
74707;SDS011;63360;50.104;8.074;2023-05-19T14:26:51;3.63;;;1.40;;
74707;SDS011;63360;50.104;8.074;2023-05-19T14:29:18;4.05;;;1.63;;
74707;SDS011;63360;50.104;8.074;2023-05-19T14:31:45;3.15;;;1.50;;
74707;SDS011;63360;50.104;8.074;2023-05-19T14:34:12;2.92;;;1.50;;
74707;SDS011;63360;50.104;8.074;2023-05-19T14:36:43;4.47;;;1.57;;
74707;SDS011;63360;50.104;8.074;2023-05-19T14:39:09;5.13;;;1.85;;
74707;SDS011;63360;50.104;8.074;2023-05-19T14:41:37;4.47;;;1.80;;
74707;SDS011;63360;50.104;8.074;2023-05-19T14:44:03;3.05;;;1.40;;
74707;SDS011;63360;50.104;8.074;2023-05-19T14:46:30;3.78;;;1.67;;
74707;SDS011;63360;50.104;8.074;2023-05-19T14:48:57;3.03;;;1.43;;
74707;SDS011;63360;50.104;8.074;2023-05-19T14:51:23;6.85;;;1.88;;
74707;SDS011;63360;50.104;8.074;2023-05-19T14:53:50;6.55;;;1.75;;
74707;SDS011;63360;50.104;8.074;2023-05-19T14:56:16;3.13;;;1.70;;
74707;SDS011;63360;50.104;8.074;2023-05-19T14:58:42;3.88;;;1.70;;
74707;SDS011;63360;50.104;8.074;2023-05-19T15:01:09;4.90;;;1.67;;
74707;SDS011;63360;50.104;8.074;2023-05-19T15:03:35;4.55;;;1.90;;
74707;SDS011;63360;50.104;8.074;2023-05-19T15:06:02;6.60;;;1.50;;
74707;SDS011;63360;50.104;8.074;2023-05-19T15:08:28;3.72;;;1.50;;
74707;SDS011;63360;50.104;8.074;2023-05-19T15:10:55;4.50;;;2.20;;
74707;SDS011;63360;50.104;8.074;2023-05-19T15:13:21;4.70;;;1.63;;
74707;SDS011;63360;50.104;8.074;2023-05-19T15:15:48;4.18;;;1.73;;
74707;SDS011;63360;50.104;8.074;2023-05-19T15:18:30;4.97;;;1.60;;
74707;SDS011;63360;50.104;8.074;2023-05-19T15:20:56;4.03;;;2.20;;
74707;SDS011;63360;50.104;8.074;2023-05-19T15:23:22;3.92;;;1.90;;
74707;SDS011;63360;50.104;8.074;2023-05-19T15:25:49;3.77;;;1.60;;
74707;SDS011;63360;50.104;8.074;2023-05-19T15:28:15;3.25;;;1.60;;
74707;SDS011;63360;50.104;8.074;2023-05-19T15:30:42;4.20;;;1.73;;
74707;SDS011;63360;50.104;8.074;2023-05-19T15:33:10;4.53;;;1.70;;
74707;SDS011;63360;50.104;8.074;2023-05-19T15:35:37;3.40;;;1.60;;